< < Back
Terminal Aerodrome Forecast


Current Version              Previous Versions:   1  2  3  4  5  6  7  8  9  

Terminal Aerodrome Forecast

051
FTUS42 KCHS 212336
TAFSAV
TAF
KSAV 212336Z 2200/2224 28010KT P6SM SKC
     FM220600 33009KT P6SM SKC
     FM221300 02013G19KT P6SM FEW050
     FM221900 05009KT P6SM FEW050=

Latest METAR

903
SAUS80 KWBC 222000 RRA
MTRSAV
METAR KSAV 221953Z 10009KT 10SM BKN049 25/14 A3016 RMK AO2 SLP212
T02500139


USA.gov is the U.S. government's official web portal to all federal, state and local government web resources and services.